Terminal Aerodrome Forecast
Issued by NWS Central Illinois

Current Version | Previous Version | Text Only | Print | Product List | Glossary On
Versions: 1 2 3 4 5 6 7 8 9 10 11 12
000
FTUS43 KILX 011100
TAFPIA
TAF
KPIA 011137Z 0112/0212 21004KT P6SM VCSH BKN080
     FM011800 24004KT P6SM VCTS BKN050CB
     FM012300 VRB02KT P6SM SCT150
     FM020400 00000KT 5SM BR SKC=

USA.gov is the U.S. government's official web portal to all federal, state and local government web resources and services.